Garden City Park, New York
Current Conditions -  °F | °C
As of 3:51 AM on Friday 28 Nov 2014 (Local Time) from KJFK Reporting Station
Few Clouds Few Clouds  
Wind Chill: 23°   Ceiling: Unl
Heat Index: 32°   Visibility: 10mi
Dew Point: 21°   Wind: 12mph
Humidity: 64%   Direction: 310°NW
Pressure: 30.09"   Gusts: NA
Location:  40.7459°N, 73.6798°W
Report Text: KJFK 280851Z 31010KT 10SM FEW050 00/M06 A3009 RMK AO2 SLP189 T00001061 50006 $
Loading
Personal Weather Stations






























Interactive Weather Map New forecast layout! Learn more

10-Day Weather Forecast

Advertisements
Track Severe Weather on mobile